Time;durP1;ratioP1;P1;durP2;ratioP2;P2;SDS_P1;SDS_P2;PMS_P1;PMS_P2;Temp;Humidity;BMP_temperature;BMP_pressure;BME280_temperature;BME280_humidity;BME280_pressure;Samples;Min_cycle;Max_cycle;Signal;HPM_P1;HPM_P2
2022/02/15 00:01:23;;;;;;;;;;;;;;;;;;5007152;28;19921;-66
2022/02/15 00:03:52;;;;;;;;;;;;;;;;;;4977505;28;19949;-66
2022/02/15 00:06:18;;;;;;;;;;;;;;;;;;4984861;28;19925;-66
2022/02/15 00:08:44;;;;;;;;;;;;;;;;;;4982521;28;19928;-72
2022/02/15 00:11:10;;;;;;;;;;;;;;;;;;4985636;28;19979;-66
2022/02/15 00:13:36;;;;;;;;;;;;;;;;;;4984247;28;19967;-66
2022/02/15 00:16:03;;;;;;;;;;;;;;;;;;4995924;28;20845;-66
2022/02/15 00:18:29;;;;;;;;;;;;;;;;;;4987275;28;19929;-66
2022/02/15 00:20:56;;;;;;;;;;;;;;;;;;4980570;28;19922;-66
2022/02/15 00:23:23;;;;;;;;;;;;;;;;;;4993358;28;19948;-66
2022/02/15 00:25:49;;;;;;;;;;;;;;;;;;4979897;28;19952;-66
2022/02/15 00:28:15;;;;;;;;;;;;;;;;;;4984044;28;20572;-66
2022/02/15 00:30:41;;;;;;;;;;;;;;;;;;4984827;28;19924;-66
2022/02/15 00:33:09;;;;;;;;;;;;;;;;;;4988112;28;20594;-66
2022/02/15 00:35:35;;;;;;;;;;;;;;;;;;4983632;28;20259;-66
2022/02/15 00:38:01;;;;;;;;;;;;;;;;;;4979309;28;20437;-66
2022/02/15 00:40:27;;;;;;;;;;;;;;;;;;4986175;28;19917;-66
2022/02/15 00:42:53;;;;;;;;;;;;;;;;;;4980673;28;19922;-66
2022/02/15 00:45:19;;;;;;;;;;;;;;;;;;4988838;28;19952;-66
2022/02/15 00:47:46;;;;;;;;;;;;;;;;;;4979497;28;19917;-66
2022/02/15 00:50:15;;;;;;;;;;;;;;;;;;4988217;28;20605;-66
2022/02/15 00:52:41;;;;;;;;;;;;;;;;;;4985146;28;19991;-66
2022/02/15 00:55:08;;;;;;;;;;;;;;;;;;4982573;28;19922;-66
2022/02/15 00:57:36;;;;;;;;;;;;;;;;;;4983850;28;20003;-66
2022/02/15 01:00:02;;;;;;;;;;;;;;;;;;4982558;28;19925;-66
2022/02/15 01:02:30;;;;;;;;;;;;;;;;;;5020923;28;19982;-66
2022/02/15 01:04:56;;;;;;;;;;;;;;;;;;5016047;28;20433;-66
2022/02/15 01:07:23;;;;;;;;;;;;;;;;;;5026810;28;19916;-66
2022/02/15 01:09:50;;;;;;;;;;;;;;;;;;5019863;28;19937;-66
2022/02/15 01:12:16;;;;;;;;;;;;;;;;;;5026599;28;19925;-66
2022/02/15 01:14:42;;;;;;;;;;;;;;;;;;5024510;28;19917;-66
2022/02/15 01:17:08;;;;;;;;;;;;;;;;;;5022083;28;20344;-66
2022/02/15 01:19:34;;;;;;;;;;;;;;;;;;5026014;28;20371;-66
2022/02/15 01:22:00;;;;;;;;;;;;;;;;;;5021136;28;20549;-66
2022/02/15 01:24:26;;;;;;;;;;;;;;;;;;5010913;28;19970;-66
2022/02/15 01:26:53;;;;;;;;;;;;;;;;;;5008757;28;19943;-66
2022/02/15 01:29:19;;;;;;;;;;;;;;;;;;5027245;28;19917;-66
2022/02/15 01:31:45;;;;;;;;;;;;;;;;;;5017028;28;19921;-66
2022/02/15 01:34:12;;;;;;;;;;;;;;;;;;5022684;28;19929;-66
2022/02/15 01:36:38;;;;;;;;;;;;;;;;;;5022600;28;19920;-66
2022/02/15 01:39:04;;;;;;;;;;;;;;;;;;5021738;28;19921;-66
2022/02/15 01:41:30;;;;;;;;;;;;;;;;;;5020943;28;19967;-66
2022/02/15 01:43:56;;;;;;;;;;;;;;;;;;5022369;28;19938;-65
2022/02/15 01:46:22;;;;;;;;;;;;;;;;;;5023338;28;19921;-66
2022/02/15 01:48:48;;;;;;;;;;;;;;;;;;5003042;28;20468;-65
2022/02/15 01:51:14;;;;;;;;;;;;;;;;;;5024960;28;19932;-66
2022/02/15 01:53:40;;;;;;;;;;;;;;;;;;5024009;28;19921;-66
2022/02/15 01:56:06;;;;;;;;;;;;;;;;;;5023255;28;19917;-66
2022/02/15 01:58:32;;;;;;;;;;;;;;;;;;5022581;28;20360;-66
2022/02/15 02:00:58;;;;;;;;;;;;;;;;;;5019974;28;19925;-66
2022/02/15 02:03:24;;;;;;;;;;;;;;;;;;5026447;28;19916;-66
2022/02/15 02:05:50;;;;;;;;;;;;;;;;;;5005723;28;19924;-66
2022/02/15 02:08:16;;;;;;;;;;;;;;;;;;5019339;28;20003;-66
2022/02/15 02:10:42;;;;;;;;;;;;;;;;;;5027568;28;19917;-66
2022/02/15 02:13:10;;;;;;;;;;;;;;;;;;5021327;28;19917;-66
2022/02/15 02:15:36;;;;;;;;;;;;;;;;;;5024525;28;19932;-66
2022/02/15 02:18:02;;;;;;;;;;;;;;;;;;5022044;28;19916;-66
2022/02/15 02:20:28;;;;;;;;;;;;;;;;;;5010813;28;19921;-66
2022/02/15 02:22:54;;;;;;;;;;;;;;;;;;5020029;28;19921;-65
2022/02/15 02:25:22;;;;;;;;;;;;;;;;;;5027957;28;19970;-66
2022/02/15 02:27:48;;;;;;;;;;;;;;;;;;5005696;28;19916;-66
2022/02/15 02:30:15;;;;;;;;;;;;;;;;;;5007898;28;19917;-65
2022/02/15 02:32:41;;;;;;;;;;;;;;;;;;5021869;28;19921;-65
2022/02/15 02:35:07;;;;;;;;;;;;;;;;;;5021000;28;19955;-66
2022/02/15 02:37:34;;;;;;;;;;;;;;;;;;5023659;28;20012;-66
2022/02/15 02:40:01;;;;;;;;;;;;;;;;;;5019411;28;19948;-66
2022/02/15 02:42:27;;;;;;;;;;;;;;;;;;5026131;28;20026;-66
2022/02/15 02:44:53;;;;;;;;;;;;;;;;;;5000382;28;19916;-67
2022/02/15 02:47:19;;;;;;;;;;;;;;;;;;5020471;28;19959;-65
2022/02/15 02:49:46;;;;;;;;;;;;;;;;;;5019052;28;20012;-66
2022/02/15 02:52:12;;;;;;;;;;;;;;;;;;5022997;28;19974;-66
2022/02/15 02:54:38;;;;;;;;;;;;;;;;;;5020891;28;19921;-66
2022/02/15 02:57:06;;;;;;;;;;;;;;;;;;5018905;28;20028;-66
2022/02/15 02:59:33;;;;;;;;;;;;;;;;;;5024635;28;19956;-66
2022/02/15 03:02:00;;;;;;;;;;;;;;;;;;5017401;28;19927;-66
2022/02/15 03:04:26;;;;;;;;;;;;;;;;;;5022157;28;19917;-66
2022/02/15 03:06:52;;;;;;;;;;;;;;;;;;5020438;28;19917;-66
2022/02/15 03:09:18;;;;;;;;;;;;;;;;;;5020838;28;19925;-66
2022/02/15 03:11:44;;;;;;;;;;;;;;;;;;5005743;28;20314;-66
2022/02/15 03:14:10;;;;;;;;;;;;;;;;;;5025240;28;19959;-66
2022/02/15 03:16:36;;;;;;;;;;;;;;;;;;5025995;28;20085;-66
2022/02/15 03:19:03;;;;;;;;;;;;;;;;;;5015718;28;19927;-66
2022/02/15 03:21:31;;;;;;;;;;;;;;;;;;5025025;28;19927;-66
2022/02/15 03:23:57;;;;;;;;;;;;;;;;;;5019440;28;19929;-66
2022/02/15 03:26:23;;;;;;;;;;;;;;;;;;5037100;28;20793;-66
2022/02/15 03:28:49;;;;;;;;;;;;;;;;;;5018452;28;19916;-66
2022/02/15 03:31:16;;;;;;;;;;;;;;;;;;5023360;28;20023;-66
2022/02/15 03:33:42;;;;;;;;;;;;;;;;;;5024975;28;19940;-65
2022/02/15 03:36:09;;;;;;;;;;;;;;;;;;5003218;28;20275;-67
2022/02/15 03:38:35;;;;;;;;;;;;;;;;;;5024470;28;19940;-68
2022/02/15 03:43:46;;;;;;;;;;;;;;;;;;5020107;28;20539;-65
2022/02/15 03:46:12;;;;;;;;;;;;;;;;;;5024982;28;19921;-65
2022/02/15 03:48:38;;;;;;;;;;;;;;;;;;5026876;28;19917;-65
2022/02/15 03:51:05;;;;;;;;;;;;;;;;;;5022354;28;20094;-65
2022/02/15 03:53:31;;;;;;;;;;;;;;;;;;5011295;28;19928;-65
2022/02/15 03:55:58;;;;;;;;;;;;;;;;;;5022190;28;19917;-68
2022/02/15 03:58:24;;;;;;;;;;;;;;;;;;5026574;28;19974;-65
2022/02/15 04:00:53;;;;;;;;;;;;;;;;;;5008393;28;19917;-67
2022/02/15 04:03:19;;;;;;;;;;;;;;;;;;5026398;28;19917;-68
2022/02/15 04:05:45;;;;;;;;;;;;;;;;;;5024324;28;20011;-66
2022/02/15 04:08:11;;;;;;;;;;;;;;;;;;5024266;28;19927;-66
2022/02/15 04:10:37;;;;;;;;;;;;;;;;;;5027661;28;19921;-66
2022/02/15 04:13:03;;;;;;;;;;;;;;;;;;5001475;28;20049;-66
2022/02/15 04:15:30;;;;;;;;;;;;;;;;;;5025826;28;19917;-66
2022/02/15 04:17:56;;;;;;;;;;;;;;;;;;5019965;28;20007;-66
2022/02/15 04:20:22;;;;;;;;;;;;;;;;;;5013579;28;19998;-66
2022/02/15 04:22:50;;;;;;;;;;;;;;;;;;5020903;28;19917;-66
2022/02/15 04:25:16;;;;;;;;;;;;;;;;;;5023062;28;19947;-66
2022/02/15 04:27:44;;;;;;;;;;;;;;;;;;5024523;28;19971;-66
2022/02/15 04:30:10;;;;;;;;;;;;;;;;;;5015251;28;20358;-66
2022/02/15 04:32:36;;;;;;;;;;;;;;;;;;5027611;28;20234;-66
2022/02/15 04:35:02;;;;;;;;;;;;;;;;;;5022050;28;21650;-66
2022/02/15 04:37:28;;;;;;;;;;;;;;;;;;5006451;28;19921;-66
2022/02/15 04:39:54;;;;;;;;;;;;;;;;;;5024285;28;20333;-66
2022/02/15 04:42:20;;;;;;;;;;;;;;;;;;5027255;28;19917;-66
2022/02/15 04:44:46;;;;;;;;;;;;;;;;;;5037577;28;19916;-66
2022/02/15 04:47:12;;;;;;;;;;;;;;;;;;5025556;28;20038;-66
2022/02/15 04:49:38;;;;;;;;;;;;;;;;;;5027538;28;20419;-66
2022/02/15 04:52:05;;;;;;;;;;;;;;;;;;5017644;28;20041;-66
2022/02/15 04:54:31;;;;;;;;;;;;;;;;;;5022992;28;20008;-66
2022/02/15 04:56:59;;;;;;;;;;;;;;;;;;5009522;28;20433;-66
2022/02/15 04:59:25;;;;;;;;;;;;;;;;;;5026455;28;19991;-66
2022/02/15 05:01:51;;;;;;;;;;;;;;;;;;5025965;28;20015;-66
2022/02/15 05:07:02;;;;;;;;;;;;;;;;;;5026954;28;20677;-66
2022/02/15 05:09:28;;;;;;;;;;;;;;;;;;5021441;28;20283;-66
2022/02/15 05:11:54;;;;;;;;;;;;;;;;;;5039542;28;19921;-66
2022/02/15 05:14:23;;;;;;;;;;;;;;;;;;5020009;28;19917;-66
2022/02/15 05:16:50;;;;;;;;;;;;;;;;;;5023861;28;19939;-66
2022/02/15 05:19:16;;;;;;;;;;;;;;;;;;5029071;28;20392;-66
2022/02/15 05:21:44;;;;;;;;;;;;;;;;;;5026265;28;19917;-66
2022/02/15 05:24:10;;;;;;;;;;;;;;;;;;5012072;28;19913;-66
2022/02/15 05:26:36;;;;;;;;;;;;;;;;;;5027616;28;19928;-66
2022/02/15 05:29:02;;;;;;;;;;;;;;;;;;5023928;28;21197;-66
2022/02/15 05:31:28;;;;;;;;;;;;;;;;;;5025324;28;20436;-66
2022/02/15 05:33:55;;;;;;;;;;;;;;;;;;5018408;28;19940;-66
2022/02/15 05:36:22;;;;;;;;;;;;;;;;;;5039555;28;20054;-64
2022/02/15 05:38:48;;;;;;;;;;;;;;;;;;5019838;28;19920;-64
2022/02/15 05:41:16;;;;;;;;;;;;;;;;;;5027532;28;19928;-64
2022/02/15 05:43:42;;;;;;;;;;;;;;;;;;5028751;28;19927;-63
2022/02/15 05:46:08;;;;;;;;;;;;;;;;;;5022292;28;20221;-64
2022/02/15 05:48:35;;;;;;;;;;;;;;;;;;5007619;28;19921;-63
2022/02/15 05:51:01;;;;;;;;;;;;;;;;;;5031725;28;19917;-64
2022/02/15 05:53:27;;;;;;;;;;;;;;;;;;5024718;28;20423;-63
2022/02/15 05:55:56;;;;;;;;;;;;;;;;;;5004614;28;19916;-63
2022/02/15 05:58:22;;;;;;;;;;;;;;;;;;5013259;28;20016;-64
2022/02/15 06:00:48;;;;;;;;;;;;;;;;;;5020910;28;19932;-64
2022/02/15 06:05:59;;;;;;;;;;;;;;;;;;5019757;28;19924;-64
2022/02/15 06:08:25;;;;;;;;;;;;;;;;;;5003824;28;19917;-64
2022/02/15 06:10:51;;;;;;;;;;;;;;;;;;5018855;28;20406;-63
2022/02/15 06:13:17;;;;;;;;;;;;;;;;;;5010369;28;20003;-63
2022/02/15 06:15:43;;;;;;;;;;;;;;;;;;5035386;28;20038;-64
2022/02/15 06:18:09;;;;;;;;;;;;;;;;;;5024506;28;20310;-64
2022/02/15 06:20:35;;;;;;;;;;;;;;;;;;5024074;28;19917;-64
2022/02/15 06:23:01;;;;;;;;;;;;;;;;;;5037292;28;19916;-64
2022/02/15 06:25:29;;;;;;;;;;;;;;;;;;5038862;28;19927;-63
2022/02/15 06:27:55;;;;;;;;;;;;;;;;;;5020182;28;20022;-64
2022/02/15 06:30:21;;;;;;;;;;;;;;;;;;5021705;28;20011;-64
2022/02/15 06:32:47;;;;;;;;;;;;;;;;;;5017633;28;19921;-64
2022/02/15 06:35:14;;;;;;;;;;;;;;;;;;5011894;28;19923;-65
2022/02/15 06:37:40;;;;;;;;;;;;;;;;;;5038509;28;19921;-64
2022/02/15 06:40:07;;;;;;;;;;;;;;;;;;5026259;28;20520;-64
2022/02/15 06:42:35;;;;;;;;;;;;;;;;;;5020637;28;19917;-65
2022/02/15 06:45:02;;;;;;;;;;;;;;;;;;5020663;28;19932;-64
2022/02/15 06:47:28;;;;;;;;;;;;;;;;;;5021597;28;19924;-64
2022/02/15 06:49:55;;;;;;;;;;;;;;;;;;5015633;28;19921;-64
2022/02/15 06:52:21;;;;;;;;;;;;;;;;;;5025316;28;19924;-65
2022/02/15 06:54:47;;;;;;;;;;;;;;;;;;5033131;28;19921;-65
2022/02/15 06:57:13;;;;;;;;;;;;;;;;;;5022688;28;19920;-65
2022/02/15 06:59:39;;;;;;;;;;;;;;;;;;5027786;28;19921;-64
2022/02/15 07:02:05;;;;;;;;;;;;;;;;;;5017135;28;19917;-65
2022/02/15 07:04:31;;;;;;;;;;;;;;;;;;5010156;28;19928;-65
2022/02/15 07:06:59;;;;;;;;;;;;;;;;;;5015829;28;19917;-65
2022/02/15 07:09:25;;;;;;;;;;;;;;;;;;5020990;28;19931;-64
2022/02/15 07:11:51;;;;;;;;;;;;;;;;;;5016049;28;19928;-64
2022/02/15 07:14:17;;;;;;;;;;;;;;;;;;5021985;28;19960;-65
2022/02/15 07:16:45;;;;;;;;;;;;;;;;;;5004182;28;19947;-65
2022/02/15 07:19:11;;;;;;;;;;;;;;;;;;5015534;28;20429;-65
2022/02/15 07:21:37;;;;;;;;;;;;;;;;;;5008910;28;19924;-64
2022/02/15 07:24:05;;;;;;;;;;;;;;;;;;5019578;28;19964;-64
2022/02/15 07:26:33;;;;;;;;;;;;;;;;;;5029356;28;20010;-65
2022/02/15 07:29:02;;;;;;;;;;;;;;;;;;5016865;28;19925;-65
2022/02/15 07:31:28;;;;;;;;;;;;;;;;;;5026928;28;19935;-65
2022/02/15 07:33:55;;;;;;;;;;;;;;;;;;5016276;28;19917;-65
2022/02/15 07:36:21;;;;;;;;;;;;;;;;;;5022353;28;20797;-64
2022/02/15 07:38:47;;;;;;;;;;;;;;;;;;5022420;28;19963;-65
2022/02/15 07:41:15;;;;;;;;;;;;;;;;;;5020493;28;19920;-65
2022/02/15 07:43:43;;;;;;;;;;;;;;;;;;5017943;28;19929;-64
2022/02/15 07:46:09;;;;;;;;;;;;;;;;;;5019328;28;19921;-65
2022/02/15 07:48:36;;;;;;;;;;;;;;;;;;5031428;28;19921;-65
2022/02/15 07:51:05;;;;;;;;;;;;;;;;;;5013038;28;20090;-64
2022/02/15 07:53:40;;;;;;;;;;;;;;;;;;5021531;28;19921;-65
2022/02/15 07:56:09;;;;;;;;;;;;;;;;;;5021255;28;19952;-65
2022/02/15 07:58:37;;;;;;;;;;;;;;;;;;5020471;28;19932;-65
2022/02/15 08:01:03;;;;;;;;;;;;;;;;;;4998016;28;19921;-65
2022/02/15 08:03:30;;;;;;;;;;;;;;;;;;5023552;28;19924;-65
2022/02/15 08:05:56;;;;;;;;;;;;;;;;;;5003975;28;19917;-65
2022/02/15 08:08:22;;;;;;;;;;;;;;;;;;5008905;28;19924;-65
2022/02/15 08:10:49;;;;;;;;;;;;;;;;;;5014271;28;19917;-65
2022/02/15 08:13:21;;;;;;;;;;;;;;;;;;5009324;28;20028;-65
2022/02/15 08:15:49;;;;;;;;;;;;;;;;;;5017400;28;19964;-65
2022/02/15 08:18:15;;;;;;;;;;;;;;;;;;5025251;28;19917;-65
2022/02/15 08:20:41;;;;;;;;;;;;;;;;;;5007078;28;20417;-65
2022/02/15 08:23:08;;;;;;;;;;;;;;;;;;5019351;28;20011;-65
2022/02/15 08:25:35;;;;;;;;;;;;;;;;;;5021197;28;19924;-65
2022/02/15 08:28:01;;;;;;;;;;;;;;;;;;5028169;28;19917;-65
2022/02/15 08:30:28;;;;;;;;;;;;;;;;;;5025276;28;20366;-65
2022/02/15 08:32:55;;;;;;;;;;;;;;;;;;5023370;28;19920;-65
2022/02/15 08:35:21;;;;;;;;;;;;;;;;;;5028274;28;20012;-65
2022/02/15 08:37:49;;;;;;;;;;;;;;;;;;5025846;28;20247;-65
2022/02/15 08:40:18;;;;;;;;;;;;;;;;;;5025191;28;19928;-65
2022/02/15 08:42:44;;;;;;;;;;;;;;;;;;5021602;28;19955;-65
2022/02/15 08:45:11;;;;;;;;;;;;;;;;;;5026785;28;19928;-64
2022/02/15 08:47:36;;;;;;;;;;;;;;;;;;5025469;28;20416;-63
2022/02/15 08:50:03;;;;;;;;;;;;;;;;;;5022089;28;19997;-64
2022/02/15 08:52:29;;;;;;;;;;;;;;;;;;5025224;28;19933;-64
2022/02/15 08:54:56;;;;;;;;;;;;;;;;;;5021614;28;19981;-64
2022/02/15 08:57:22;;;;;;;;;;;;;;;;;;5028342;28;19917;-64
2022/02/15 08:59:53;;;;;;;;;;;;;;;;;;5026012;28;19974;-64
2022/02/15 09:02:19;;;;;;;;;;;;;;;;;;5022353;28;19928;-64
2022/02/15 09:04:45;;;;;;;;;;;;;;;;;;5039479;28;19955;-63
2022/02/15 09:07:11;;;;;;;;;;;;;;;;;;5022860;28;20016;-64
2022/02/15 09:09:38;;;;;;;;;;;;;;;;;;5023894;28;19931;-64
2022/02/15 09:12:05;;;;;;;;;;;;;;;;;;5020684;28;19920;-64
2022/02/15 09:14:32;;;;;;;;;;;;;;;;;;5025394;28;19939;-64
2022/02/15 09:17:02;;;;;;;;;;;;;;;;;;5022968;28;19977;-64
2022/02/15 09:19:28;;;;;;;;;;;;;;;;;;5025296;28;19983;-64
2022/02/15 09:21:54;;;;;;;;;;;;;;;;;;5023084;28;20450;-64
2022/02/15 09:24:20;;;;;;;;;;;;;;;;;;5029217;28;19953;-64
2022/02/15 09:26:47;;;;;;;;;;;;;;;;;;5035563;28;20321;-64
2022/02/15 09:29:15;;;;;;;;;;;;;;;;;;5019058;28;20409;-64
2022/02/15 09:31:42;;;;;;;;;;;;;;;;;;5022497;28;20020;-64
2022/02/15 09:34:09;;;;;;;;;;;;;;;;;;5018886;28;19987;-64
2022/02/15 09:36:36;;;;;;;;;;;;;;;;;;5022163;28;20632;-64
2022/02/15 09:39:02;;;;;;;;;;;;;;;;;;5034752;28;19921;-64
2022/02/15 09:41:33;;;;;;;;;;;;;;;;;;5024182;28;20543;-64
2022/02/15 09:44:00;;;;;;;;;;;;;;;;;;5019826;28;19979;-64
2022/02/15 09:46:27;;;;;;;;;;;;;;;;;;5020185;28;19923;-64
2022/02/15 09:48:54;;;;;;;;;;;;;;;;;;5017675;28;20016;-67
2022/02/15 09:51:25;;;;;;;;;;;;;;;;;;5001162;28;19933;-64
2022/02/15 09:53:52;;;;;;;;;;;;;;;;;;4979315;28;20004;-65
2022/02/15 09:56:18;;;;;;;;;;;;;;;;;;4983584;28;19992;-64
2022/02/15 09:58:44;;;;;;;;;;;;;;;;;;4996708;28;19935;-65
2022/02/15 10:01:10;;;;;;;;;;;;;;;;;;4979648;28;20199;-65
2022/02/15 10:03:36;;;;;;;;;;;;;;;;;;4984717;28;19917;-65
2022/02/15 10:06:02;;;;;;;;;;;;;;;;;;4981890;28;19913;-65
2022/02/15 10:08:28;;;;;;;;;;;;;;;;;;4984199;28;19972;-65
2022/02/15 10:10:55;;;;;;;;;;;;;;;;;;4983810;28;19932;-69
2022/02/15 10:13:22;;;;;;;;;;;;;;;;;;4982268;28;19972;-66
2022/02/15 10:15:49;;;;;;;;;;;;;;;;;;4981599;28;19944;-66
2022/02/15 10:18:17;;;;;;;;;;;;;;;;;;4982158;28;19993;-65
2022/02/15 10:20:44;;;;;;;;;;;;;;;;;;4981617;28;20122;-65
2022/02/15 10:23:11;;;;;;;;;;;;;;;;;;4979534;28;20000;-65
2022/02/15 10:25:37;;;;;;;;;;;;;;;;;;4982932;28;20770;-65
2022/02/15 10:28:05;;;;;;;;;;;;;;;;;;4982508;28;19921;-66
2022/02/15 10:30:35;;;;;;;;;;;;;;;;;;4980935;28;19925;-66
2022/02/15 10:33:02;;;;;;;;;;;;;;;;;;4981955;28;19929;-66
2022/02/15 10:35:28;;;;;;;;;;;;;;;;;;4995699;28;19918;-68
2022/02/15 10:37:56;;;;;;;;;;;;;;;;;;4982571;28;19987;-65
2022/02/15 10:40:23;;;;;;;;;;;;;;;;;;4982879;28;19973;-66
2022/02/15 10:42:49;;;;;;;;;;;;;;;;;;4977318;28;19917;-65
2022/02/15 10:45:15;;;;;;;;;;;;;;;;;;4986809;28;19925;-65
2022/02/15 10:47:41;;;;;;;;;;;;;;;;;;4984163;28;19995;-66
2022/02/15 10:50:09;;;;;;;;;;;;;;;;;;4983324;28;19972;-65
2022/02/15 10:52:35;;;;;;;;;;;;;;;;;;5022888;28;19928;-66
2022/02/15 10:55:02;;;;;;;;;;;;;;;;;;5024925;28;19986;-66
2022/02/15 10:57:29;;;;;;;;;;;;;;;;;;5025365;28;19944;-65
2022/02/15 10:59:56;;;;;;;;;;;;;;;;;;5023382;28;19920;-66
2022/02/15 11:02:23;;;;;;;;;;;;;;;;;;5026061;28;19916;-66
2022/02/15 11:04:50;;;;;;;;;;;;;;;;;;5006588;28;19917;-65
2022/02/15 11:07:16;;;;;;;;;;;;;;;;;;5008876;28;19921;-65
2022/02/15 11:09:42;;;;;;;;;;;;;;;;;;5024692;28;19989;-67
2022/02/15 11:12:08;;;;;;;;;;;;;;;;;;5022273;28;19921;-67
2022/02/15 11:14:35;;;;;;;;;;;;;;;;;;5015879;28;19962;-67
2022/02/15 11:17:01;;;;;;;;;;;;;;;;;;5006337;28;19924;-66
2022/02/15 11:19:28;;;;;;;;;;;;;;;;;;5013722;28;19925;-66
2022/02/15 11:21:54;;;;;;;;;;;;;;;;;;5004225;28;20517;-66
2022/02/15 11:24:20;;;;;;;;;;;;;;;;;;5014288;28;19920;-66
2022/02/15 11:26:47;;;;;;;;;;;;;;;;;;5006240;28;20393;-66
2022/02/15 11:29:14;;;;;;;;;;;;;;;;;;5024476;28;19917;-67
2022/02/15 11:31:40;;;;;;;;;;;;;;;;;;5043442;28;20346;-66
2022/02/15 11:34:06;;;;;;;;;;;;;;;;;;5023539;28;20797;-66
2022/02/15 11:36:32;;;;;;;;;;;;;;;;;;5028257;28;19943;-65
2022/02/15 11:38:59;;;;;;;;;;;;;;;;;;5030326;28;19917;-66
2022/02/15 11:44:07;;;;;;;;;;;;;;;;;;5027057;23;19933;-65
2022/02/15 11:46:33;;;;;;;;;;;;;;;;;;4950286;28;19925;-64
2022/02/15 11:48:59;;;;;;;;;;;;;;;;;;4944364;28;19969;-64
2022/02/15 11:51:26;;;;;;;;;;;;;;;;;;4947711;28;20297;-65
2022/02/15 11:53:52;;;;;;;;;;;;;;;;;;4945575;28;19923;-65
2022/02/15 11:56:18;;;;;;;;;;;;;;;;;;4945878;28;19974;-64
2022/02/15 11:58:44;;;;;;;;;;;;;;;;;;4946560;28;20593;-65
2022/02/15 12:01:10;;;;;;;;;;;;;;;;;;4949805;28;20373;-64
2022/02/15 12:03:36;;;;;;;;;;;;;;;;;;4951267;28;19925;-65
2022/02/15 12:06:02;;;;;;;;;;;;;;;;;;4953210;28;20580;-64
2022/02/15 12:08:30;;;;;;;;;;;;;;;;;;4949850;28;19929;-64
2022/02/15 12:10:56;;;;;;;;;;;;;;;;;;4933441;28;19925;-65
2022/02/15 12:13:22;;;;;;;;;;;;;;;;;;4938536;28;19926;-64
2022/02/15 12:15:48;;;;;;;;;;;;;;;;;;4948689;28;20345;-65
2022/02/15 12:18:14;;;;;;;;;;;;;;;;;;4955558;28;19918;-64
2022/02/15 12:20:41;;;;;;;;;;;;;;;;;;4948648;28;19929;-64
2022/02/15 12:23:07;;;;;;;;;;;;;;;;;;4952868;28;19925;-64
2022/02/15 12:25:33;;;;;;;;;;;;;;;;;;4955943;28;19944;-64
2022/02/15 12:28:00;;;;;;;;;;;;;;;;;;4945439;28;20747;-64
2022/02/15 12:30:26;;;;;;;;;;;;;;;;;;4953410;28;20346;-65
2022/02/15 12:32:53;;;;;;;;;;;;;;;;;;4932554;28;19929;-64
2022/02/15 12:35:19;;;;;;;;;;;;;;;;;;4952288;28;19925;-65
2022/02/15 12:37:47;;;;;;;;;;;;;;;;;;4935472;28;19922;-66
2022/02/15 12:40:13;;;;;;;;;;;;;;;;;;4934276;28;19918;-65
2022/02/15 12:42:39;;;;;;;;;;;;;;;;;;4952015;28;20029;-66
2022/02/15 12:45:05;;;;;;;;;;;;;;;;;;4950566;28;19922;-66
2022/02/15 12:47:31;;;;;;;;;;;;;;;;;;4946657;28;19925;-66
2022/02/15 12:49:57;;;;;;;;;;;;;;;;;;4933390;28;20000;-66
2022/02/15 12:52:23;;;;;;;;;;;;;;;;;;4934910;28;19993;-64
2022/02/15 12:54:49;;;;;;;;;;;;;;;;;;4932999;28;19926;-65
2022/02/15 12:57:18;;;;;;;;;;;;;;;;;;4950313;28;20302;-64
2022/02/15 12:59:44;;;;;;;;;;;;;;;;;;4947746;28;20030;-64
2022/02/15 13:02:10;;;;;;;;;;;;;;;;;;4949264;28;19924;-64
2022/02/15 13:04:36;;;;;;;;;;;;;;;;;;4950064;28;20800;-65
2022/02/15 13:07:02;;;;;;;;;;;;;;;;;;4946427;28;19922;-65
2022/02/15 13:09:31;;;;;;;;;;;;;;;;;;4936174;28;20380;-65
2022/02/15 13:11:57;;;;;;;;;;;;;;;;;;4945466;28;19972;-65
2022/02/15 13:14:22;;;;;;;;;;;;;;;;;;4952617;28;19923;-65
2022/02/15 13:16:49;;;;;;;;;;;;;;;;;;4948789;28;19922;-64
2022/02/15 13:19:16;;;;;;;;;;;;;;;;;;4952925;28;20016;-65
2022/02/15 13:21:42;;;;;;;;;;;;;;;;;;4946632;28;20369;-64
2022/02/15 13:24:11;;;;;;;;;;;;;;;;;;4953946;28;19925;-66
2022/02/15 13:26:37;;;;;;;;;;;;;;;;;;4951088;28;19918;-64
2022/02/15 13:29:03;;;;;;;;;;;;;;;;;;4932097;28;19918;-65
2022/02/15 13:31:29;;;;;;;;;;;;;;;;;;4934763;28;20491;-66
2022/02/15 13:33:56;;;;;;;;;;;;;;;;;;4944825;28;20045;-66
2022/02/15 13:36:22;;;;;;;;;;;;;;;;;;4953211;28;19918;-65
2022/02/15 13:38:48;;;;;;;;;;;;;;;;;;4949811;28;19918;-65
2022/02/15 13:41:14;;;;;;;;;;;;;;;;;;4948524;28;20723;-65
2022/02/15 13:43:41;;;;;;;;;;;;;;;;;;4933349;28;19934;-65
2022/02/15 13:46:07;;;;;;;;;;;;;;;;;;4946646;28;20265;-65
2022/02/15 13:48:33;;;;;;;;;;;;;;;;;;4947694;28;19925;-65
2022/02/15 13:50:59;;;;;;;;;;;;;;;;;;4948583;28;23081;-66
2022/02/15 13:53:25;;;;;;;;;;;;;;;;;;4948748;28;20296;-65
2022/02/15 13:55:51;;;;;;;;;;;;;;;;;;4951032;28;19933;-66
2022/02/15 13:58:18;;;;;;;;;;;;;;;;;;4935538;28;19918;-66
2022/02/15 14:00:44;;;;;;;;;;;;;;;;;;4930554;28;19929;-66
2022/02/15 14:03:11;;;;;;;;;;;;;;;;;;4952815;28;19922;-66
2022/02/15 14:05:37;;;;;;;;;;;;;;;;;;4947796;28;19924;-65
2022/02/15 14:08:04;;;;;;;;;;;;;;;;;;4931340;28;19921;-64
2022/02/15 14:10:31;;;;;;;;;;;;;;;;;;4953543;28;19918;-65
2022/02/15 14:12:58;;;;;;;;;;;;;;;;;;4942656;28;20571;-65
2022/02/15 14:15:28;;;;;;;;;;;;;;;;;;4950794;28;19922;-65
2022/02/15 14:17:57;;;;;;;;;;;;;;;;;;4945001;28;19918;-65
2022/02/15 14:20:24;;;;;;;;;;;;;;;;;;4948933;28;20250;-65
2022/02/15 14:22:50;;;;;;;;;;;;;;;;;;4946953;28;20341;-65
2022/02/15 14:25:17;;;;;;;;;;;;;;;;;;4932990;28;19929;-65
2022/02/15 14:27:43;;;;;;;;;;;;;;;;;;4944467;28;19949;-66
2022/02/15 14:30:10;;;;;;;;;;;;;;;;;;4947980;28;20030;-65
2022/02/15 14:32:36;;;;;;;;;;;;;;;;;;4931434;28;20049;-65
2022/02/15 14:35:02;;;;;;;;;;;;;;;;;;4948386;28;19922;-65
2022/02/15 14:37:29;;;;;;;;;;;;;;;;;;4931327;28;19925;-65
2022/02/15 14:39:56;;;;;;;;;;;;;;;;;;4946659;28;20031;-66
2022/02/15 14:42:22;;;;;;;;;;;;;;;;;;4955509;28;20243;-65
2022/02/15 14:44:48;;;;;;;;;;;;;;;;;;4950053;28;20296;-65
2022/02/15 14:47:14;;;;;;;;;;;;;;;;;;4971632;28;19945;-65
2022/02/15 14:49:41;;;;;;;;;;;;;;;;;;4963015;28;20399;-65
2022/02/15 14:52:09;;;;;;;;;;;;;;;;;;4951798;28;20361;-65
2022/02/15 14:54:35;;;;;;;;;;;;;;;;;;4963891;28;19922;-65
2022/02/15 14:57:01;;;;;;;;;;;;;;;;;;4961596;28;19925;-65
2022/02/15 14:59:27;;;;;;;;;;;;;;;;;;4968622;28;20305;-65
2022/02/15 15:01:53;;;;;;;;;;;;;;;;;;4963372;28;20432;-63
2022/02/15 15:04:19;;;;;;;;;;;;;;;;;;4965680;28;20032;-66
2022/02/15 15:06:48;;;;;;;;;;;;;;;;;;4962134;28;19929;-65
2022/02/15 15:09:15;;;;;;;;;;;;;;;;;;4966596;28;19922;-66
2022/02/15 15:11:42;;;;;;;;;;;;;;;;;;4951411;28;19922;-65
2022/02/15 15:14:08;;;;;;;;;;;;;;;;;;4966797;28;19917;-65
2022/02/15 15:16:34;;;;;;;;;;;;;;;;;;4969355;28;19918;-64
2022/02/15 15:19:00;;;;;;;;;;;;;;;;;;4948985;28;19926;-65
2022/02/15 15:21:27;;;;;;;;;;;;;;;;;;4966196;28;19925;-64
2022/02/15 15:23:53;;;;;;;;;;;;;;;;;;4965685;28;20021;-65
2022/02/15 15:26:19;;;;;;;;;;;;;;;;;;4964066;28;19976;-68
2022/02/15 15:28:46;;;;;;;;;;;;;;;;;;4962600;28;20639;-64
2022/02/15 15:31:14;;;;;;;;;;;;;;;;;;4962496;28;20559;-65
2022/02/15 15:33:40;;;;;;;;;;;;;;;;;;4966033;28;19987;-65
2022/02/15 15:36:06;;;;;;;;;;;;;;;;;;4968799;28;19922;-65
2022/02/15 15:38:33;;;;;;;;;;;;;;;;;;4964890;28;19917;-65
2022/02/15 15:40:59;;;;;;;;;;;;;;;;;;4968928;28;22091;-64
2022/02/15 15:43:25;;;;;;;;;;;;;;;;;;4928701;28;20557;-65
2022/02/15 15:45:51;;;;;;;;;;;;;;;;;;4929302;28;20029;-65
2022/02/15 15:48:17;;;;;;;;;;;;;;;;;;4933150;28;20741;-64
2022/02/15 15:50:43;;;;;;;;;;;;;;;;;;4925366;28;19977;-65
2022/02/15 15:53:09;;;;;;;;;;;;;;;;;;4946248;28;19980;-64
2022/02/15 15:55:36;;;;;;;;;;;;;;;;;;4933889;28;20510;-65
2022/02/15 15:58:03;;;;;;;;;;;;;;;;;;4923515;28;20449;-65
2022/02/15 16:00:29;;;;;;;;;;;;;;;;;;4934815;28;20052;-64
2022/02/15 16:02:56;;;;;;;;;;;;;;;;;;4924008;28;19918;-65
2022/02/15 16:05:23;;;;;;;;;;;;;;;;;;4931457;28;20009;-64
2022/02/15 16:07:50;;;;;;;;;;;;;;;;;;4927405;28;20497;-64
2022/02/15 16:10:18;;;;;;;;;;;;;;;;;;4926310;28;20042;-64
2022/02/15 16:12:45;;;;;;;;;;;;;;;;;;4930912;28;20305;-65
2022/02/15 16:15:12;;;;;;;;;;;;;;;;;;4933023;28;19918;-65
2022/02/15 16:17:38;;;;;;;;;;;;;;;;;;4943356;28;19926;-64
2022/02/15 16:20:08;;;;;;;;;;;;;;;;;;4930190;28;19961;-64
2022/02/15 16:22:35;;;;;;;;;;;;;;;;;;4925584;28;19918;-65
2022/02/15 16:25:01;;;;;;;;;;;;;;;;;;4941450;28;19980;-64
2022/02/15 16:27:28;;;;;;;;;;;;;;;;;;4929275;28;19918;-65
2022/02/15 16:29:55;;;;;;;;;;;;;;;;;;4926952;28;19954;-66
2022/02/15 16:32:22;;;;;;;;;;;;;;;;;;4927107;28;20018;-66
2022/02/15 16:34:50;;;;;;;;;;;;;;;;;;4926031;28;20017;-66
2022/02/15 16:37:17;;;;;;;;;;;;;;;;;;4927563;28;19934;-66
2022/02/15 16:39:43;;;;;;;;;;;;;;;;;;4922657;28;19918;-66
2022/02/15 16:42:09;;;;;;;;;;;;;;;;;;4940401;28;19969;-66
2022/02/15 16:44:38;;;;;;;;;;;;;;;;;;4966259;28;19972;-65
2022/02/15 16:47:04;;;;;;;;;;;;;;;;;;4964829;28;20361;-66
2022/02/15 16:49:30;;;;;;;;;;;;;;;;;;4970592;28;20116;-67
2022/02/15 16:51:56;;;;;;;;;;;;;;;;;;4953890;28;19922;-66